createdAt,value
2023-02-20T00:00:06.099Z,70.81
2023-02-20T00:02:38.621Z,70.21
2023-02-20T00:05:12.662Z,70.53
2023-02-20T00:07:45.738Z,71.75
2023-02-20T00:10:18.893Z,72.07
2023-02-20T00:12:51.522Z,72.16
2023-02-20T00:15:23.864Z,72.10
2023-02-20T00:17:56.187Z,71.64
2023-02-20T00:20:29.587Z,73.57
2023-02-20T00:23:02.605Z,75.20
2023-02-20T00:25:34.951Z,73.68
2023-02-20T00:28:07.442Z,74.50
2023-02-20T00:30:39.820Z,75.70
2023-02-20T00:33:12.250Z,75.66
2023-02-20T00:35:44.528Z,74.89
2023-02-20T00:38:18.606Z,74.73
2023-02-20T00:40:51.283Z,74.78
2023-02-20T00:43:23.671Z,74.68
2023-02-20T00:45:55.981Z,74.22
2023-02-20T00:48:28.247Z,74.68
2023-02-20T00:51:20.499Z,74.40
2023-02-20T00:53:53.493Z,74.28
2023-02-20T00:56:25.825Z,74.06
2023-02-20T00:58:58.169Z,72.99
2023-02-20T01:01:32.136Z,72.63
2023-02-20T01:04:04.557Z,73.22
2023-02-20T01:06:36.847Z,72.89
2023-02-20T01:09:10.210Z,73.98
2023-02-20T01:11:43.503Z,73.97
2023-02-20T01:14:15.836Z,74.39
2023-02-20T01:16:50.892Z,74.65
2023-02-20T01:19:24.276Z,74.92
2023-02-20T01:21:59.654Z,75.05
2023-02-20T01:24:32.788Z,77.93
2023-02-20T01:27:05.117Z,77.42
2023-02-20T01:29:37.371Z,76.71
2023-02-20T01:32:11.422Z,76.47
2023-02-20T01:34:44.123Z,76.73
2023-02-20T01:37:17.309Z,77.68
2023-02-20T01:39:50.455Z,78.73
2023-02-20T01:42:24.586Z,80.56
2023-02-20T01:45:29.682Z,81.63
2023-02-20T01:48:02.636Z,87.71
2023-02-20T01:50:39.807Z,85.54
2023-02-20T01:53:15.683Z,85.61
2023-02-20T01:55:53.200Z,83.27
2023-02-20T01:58:30.543Z,83.35
2023-02-20T02:01:05.023Z,84.64
2023-02-20T02:03:41.345Z,85.63
2023-02-20T02:06:15.662Z,86.66
2023-02-20T02:08:48.503Z,84.96
2023-02-20T02:11:23.715Z,83.42
2023-02-20T02:13:56.045Z,84.85
2023-02-20T02:16:41.243Z,85.50
2023-02-20T02:19:31.819Z,85.27
2023-02-20T02:22:26.123Z,84.64
2023-02-20T02:25:25.501Z,82.84
2023-02-20T02:28:41.490Z,84.10
2023-02-20T02:31:52.223Z,81.80
2023-02-20T02:34:55.507Z,81.55
2023-02-20T02:37:35.212Z,81.30
2023-02-20T02:40:17.721Z,81.62
2023-02-20T02:42:55.005Z,80.52
2023-02-20T02:45:33.297Z,79.62
2023-02-20T02:48:11.510Z,79.61
2023-02-20T02:50:46.315Z,79.74
2023-02-20T02:53:19.856Z,78.93
2023-02-20T02:55:52.187Z,80.35
2023-02-20T02:58:24.664Z,80.01
2023-02-20T03:01:01.732Z,80.11
2023-02-20T03:03:38.684Z,80.75
2023-02-20T03:06:16.217Z,81.46
2023-02-20T03:08:56.972Z,81.97
2023-02-20T03:11:32.738Z,81.74
2023-02-20T03:14:28.001Z,81.95
2023-02-20T03:17:08.142Z,81.20
2023-02-20T03:19:45.980Z,81.10
2023-02-20T03:22:21.642Z,80.04
2023-02-20T03:24:58.985Z,80.39
2023-02-20T03:27:44.173Z,80.86
2023-02-20T03:30:22.767Z,80.22
2023-02-20T03:33:20.044Z,79.72
2023-02-20T03:36:14.347Z,80.11
2023-02-20T03:39:12.791Z,80.65
2023-02-20T03:42:06.091Z,79.33
2023-02-20T03:44:39.277Z,79.44
2023-02-20T03:47:18.604Z,79.51
2023-02-20T03:49:53.801Z,79.17
2023-02-20T03:52:27.263Z,79.23
2023-02-20T03:54:59.689Z,78.13
2023-02-20T03:57:37.883Z,77.93
2023-02-20T04:00:14.438Z,78.73
2023-02-20T04:03:00.384Z,79.20
2023-02-20T04:05:41.978Z,79.26
2023-02-20T04:08:19.674Z,79.47
2023-02-20T04:10:57.516Z,78.42
2023-02-20T04:13:32.500Z,77.62
2023-02-20T04:16:05.778Z,78.04
2023-02-20T04:18:38.179Z,78.65
2023-02-20T04:21:19.476Z,77.80
2023-02-20T04:24:01.771Z,78.38
2023-02-20T04:26:35.026Z,78.99
2023-02-20T04:29:08.213Z,78.67
2023-02-20T04:31:41.609Z,78.36
2023-02-20T04:34:14.587Z,78.35
2023-02-20T04:36:47.629Z,77.62
2023-02-20T04:39:21.546Z,77.60
2023-02-20T04:41:53.882Z,77.16
2023-02-20T04:44:34.463Z,79.30
2023-02-20T04:47:13.592Z,79.14
2023-02-20T04:49:46.033Z,77.65
2023-02-20T04:52:23.888Z,77.74
2023-02-20T04:54:56.344Z,77.66
2023-02-20T04:57:29.880Z,78.54
2023-02-20T05:00:04.349Z,78.04
2023-02-20T05:02:38.111Z,80.30
2023-02-20T05:05:19.186Z,80.21
2023-02-20T05:07:54.778Z,78.99
2023-02-20T05:10:28.964Z,80.02
2023-02-20T05:13:02.184Z,77.54
2023-02-20T05:15:35.189Z,74.98
2023-02-20T05:18:07.503Z,75.64
2023-02-20T05:20:58.055Z,75.64
2023-02-20T05:23:30.299Z,74.87
2023-02-20T05:26:02.617Z,74.44
2023-02-20T05:28:34.911Z,74.57
2023-02-20T05:31:07.953Z,74.73
2023-02-20T05:33:40.291Z,75.21
2023-02-20T05:36:12.922Z,75.03
2023-02-20T05:38:48.665Z,75.39
2023-02-20T05:41:21.055Z,76.92
2023-02-20T05:43:56.812Z,77.83
2023-02-20T05:46:29.822Z,77.54
2023-02-20T05:49:02.217Z,77.16
2023-02-20T05:51:34.510Z,76.77
2023-02-20T05:54:07.127Z,76.45
2023-02-20T05:56:41.824Z,77.29
2023-02-20T05:59:17.374Z,79.89
2023-02-20T06:01:55.556Z,81.00
2023-02-20T06:04:29.437Z,81.23
2023-02-20T06:07:02.136Z,81.13
2023-02-20T06:09:34.443Z,81.06
2023-02-20T06:12:07.304Z,80.96
2023-02-20T06:14:39.578Z,80.85
2023-02-20T06:17:12.925Z,79.63
2023-02-20T06:19:45.480Z,81.34
2023-02-20T06:22:18.379Z,81.12
2023-02-20T06:24:50.641Z,80.42
2023-02-20T06:27:23.002Z,80.49
2023-02-20T06:29:55.286Z,80.63
2023-02-20T06:32:28.326Z,80.66
2023-02-20T06:35:00.845Z,80.17
2023-02-20T06:37:33.124Z,78.20
2023-02-20T06:40:06.383Z,77.67
2023-02-20T06:42:38.584Z,76.31
2023-02-20T06:45:11.716Z,75.99
2023-02-20T06:47:46.078Z,76.87
2023-02-20T06:50:21.345Z,78.09
2023-02-20T06:52:53.656Z,76.97
2023-02-20T06:55:26.881Z,77.35
2023-02-20T06:58:02.238Z,77.25
2023-02-20T07:00:34.563Z,76.99
2023-02-20T07:03:07.812Z,76.27
2023-02-20T07:05:40.361Z,75.37
2023-02-20T07:08:12.673Z,76.31
2023-02-20T07:10:44.951Z,76.32
2023-02-20T07:13:17.256Z,74.71
2023-02-20T07:15:49.752Z,73.78
2023-02-20T07:18:23.429Z,72.58
2023-02-20T07:20:56.194Z,73.55
2023-02-20T07:23:28.471Z,71.82
2023-02-20T07:26:00.953Z,72.28
2023-02-20T07:28:34.863Z,68.92
2023-02-20T07:31:07.198Z,69.36
2023-02-20T07:33:42.254Z,66.99
2023-02-20T07:36:15.773Z,66.81
2023-02-20T07:38:54.073Z,66.98
2023-02-20T07:41:31.400Z,68.04
2023-02-20T07:44:04.478Z,65.98
2023-02-20T07:46:36.765Z,65.05
2023-02-20T07:49:09.722Z,65.47
2023-02-20T07:51:41.993Z,65.11
2023-02-20T07:54:14.255Z,60.35
2023-02-20T07:56:46.645Z,58.75
2023-02-20T07:59:19.032Z,57.65
2023-02-20T08:01:51.582Z,60.33
2023-02-20T08:04:24.651Z,56.63
2023-02-20T08:06:56.890Z,56.88
2023-02-20T08:09:29.241Z,57.81
2023-02-20T08:12:01.930Z,57.59
2023-02-20T08:14:34.254Z,55.53
2023-02-20T08:17:06.579Z,56.04
2023-02-20T08:19:39.498Z,57.19
2023-02-20T08:22:11.974Z,53.62
2023-02-20T08:24:44.269Z,53.68
2023-02-20T08:27:16.673Z,53.17
2023-02-20T08:29:48.985Z,53.45
2023-02-20T08:32:21.353Z,51.97
2023-02-20T08:34:54.365Z,50.29
2023-02-20T08:37:26.690Z,51.20
2023-02-20T08:39:59.524Z,51.42
2023-02-20T08:42:33.058Z,50.00
2023-02-20T08:45:07.581Z,51.24
2023-02-20T08:47:40.101Z,49.06
2023-02-20T08:50:13.046Z,49.44
2023-02-20T08:52:45.856Z,49.26
2023-02-20T08:55:18.412Z,50.02
2023-02-20T08:57:50.905Z,49.18
2023-02-20T09:00:23.725Z,48.42
2023-02-20T09:02:56.104Z,47.79
2023-02-20T09:05:29.059Z,48.65
2023-02-20T09:08:01.532Z,48.42
2023-02-20T09:10:34.449Z,47.73
2023-02-20T09:13:07.141Z,48.35
2023-02-20T09:15:39.472Z,49.11
2023-02-20T09:18:13.525Z,47.19
2023-02-20T09:20:47.526Z,48.90
2023-02-20T09:23:23.609Z,48.99
2023-02-20T09:25:55.949Z,47.65
2023-02-20T09:28:28.214Z,48.11
2023-02-20T09:31:01.072Z,47.73
2023-02-20T09:33:33.407Z,47.80
2023-02-20T09:36:08.257Z,46.80
2023-02-20T09:38:40.680Z,47.09
2023-02-20T09:41:29.946Z,47.35
2023-02-20T09:44:11.874Z,45.32
2023-02-20T09:46:45.918Z,45.66
2023-02-20T09:49:24.368Z,45.32
2023-02-20T09:52:02.192Z,45.05
2023-02-20T09:54:37.511Z,46.18
2023-02-20T09:57:13.868Z,43.46
2023-02-20T09:59:50.364Z,43.99
2023-02-20T10:02:29.538Z,42.56
2023-02-20T10:05:04.803Z,42.05
2023-02-20T10:07:41.423Z,41.11
2023-02-20T10:10:19.602Z,38.95
2023-02-20T10:13:01.678Z,39.24
2023-02-20T10:15:44.724Z,39.18
2023-02-20T10:18:25.246Z,38.88
2023-02-20T10:21:03.295Z,38.21
2023-02-20T10:23:49.340Z,38.18
2023-02-20T10:26:32.201Z,36.96
2023-02-20T10:29:15.923Z,37.57
2023-02-20T10:31:53.310Z,37.25
2023-02-20T10:34:34.504Z,37.49
2023-02-20T10:37:13.769Z,36.85
2023-02-20T10:39:52.883Z,37.42
2023-02-20T10:42:32.742Z,37.00
2023-02-20T10:45:09.949Z,38.33
2023-02-20T10:47:47.412Z,38.13
2023-02-20T10:50:25.188Z,38.67
2023-02-20T10:53:02.026Z,37.36
2023-02-20T10:55:43.604Z,36.43
2023-02-20T10:58:22.193Z,37.79
2023-02-20T11:00:58.188Z,39.54
2023-02-20T11:03:40.748Z,38.39
2023-02-20T11:06:17.460Z,39.75
2023-02-20T11:08:49.778Z,39.67
2023-02-20T11:11:29.350Z,39.76
2023-02-20T11:14:11.109Z,40.38
2023-02-20T11:16:49.121Z,39.97
2023-02-20T11:19:25.816Z,40.32
2023-02-20T11:21:58.423Z,40.24
2023-02-20T11:24:34.099Z,40.19
2023-02-20T11:27:11.106Z,39.78
2023-02-20T11:29:49.635Z,39.49
2023-02-20T11:32:29.305Z,38.69
2023-02-20T11:35:16.477Z,39.56
2023-02-20T11:37:55.215Z,38.66
2023-02-20T11:40:28.913Z,39.45
2023-02-20T11:43:10.780Z,39.18
2023-02-20T11:45:43.112Z,39.23
2023-02-20T11:48:17.256Z,40.93
2023-02-20T11:50:51.379Z,40.24
2023-02-20T11:53:26.412Z,39.91
2023-02-20T11:56:10.874Z,40.17
2023-02-20T11:58:46.031Z,39.26
2023-02-20T12:01:29.842Z,37.75
2023-02-20T12:04:02.308Z,37.62
2023-02-20T12:06:41.831Z,37.06
2023-02-20T12:09:17.936Z,37.96
2023-02-20T12:11:53.875Z,35.79
2023-02-20T12:14:26.886Z,35.56
2023-02-20T12:17:09.281Z,35.25
2023-02-20T12:19:53.200Z,35.06
2023-02-20T12:22:33.354Z,34.94
2023-02-20T12:25:24.492Z,35.13
2023-02-20T12:28:08.825Z,35.41
2023-02-20T12:30:56.234Z,34.95
2023-02-20T12:33:51.755Z,35.30
2023-02-20T12:36:31.065Z,35.15
2023-02-20T12:39:08.005Z,34.56
2023-02-20T12:41:49.989Z,35.24
2023-02-20T12:44:54.491Z,34.70
2023-02-20T12:47:31.036Z,35.18
2023-02-20T12:50:30.045Z,36.42
2023-02-20T12:53:20.959Z,36.06
2023-02-20T12:56:05.271Z,35.82
2023-02-20T12:58:47.374Z,36.28
2023-02-20T13:01:34.161Z,36.14
2023-02-20T13:04:25.212Z,35.88
2023-02-20T13:07:05.204Z,37.16
2023-02-20T13:09:42.456Z,37.98
2023-02-20T13:12:16.569Z,37.20
2023-02-20T13:14:58.045Z,37.37
2023-02-20T13:17:40.534Z,37.37
2023-02-20T13:20:24.311Z,36.92
2023-02-20T13:23:01.660Z,37.89
2023-02-20T13:25:45.333Z,38.97
2023-02-20T13:28:41.898Z,38.15
2023-02-20T13:31:18.215Z,38.00
2023-02-20T13:34:12.554Z,37.38
2023-02-20T13:36:46.740Z,37.50
2023-02-20T13:39:36.950Z,38.05
2023-02-20T13:42:32.745Z,37.08
2023-02-20T13:45:37.373Z,37.98
2023-02-20T13:48:20.479Z,38.10
2023-02-20T13:51:32.137Z,38.03
2023-02-20T13:54:25.024Z,37.81
2023-02-20T13:57:04.159Z,37.38
2023-02-20T13:59:39.237Z,38.34
2023-02-20T14:02:19.458Z,40.01
2023-02-20T14:04:53.653Z,39.89
2023-02-20T14:07:36.562Z,39.28
2023-02-20T14:10:16.337Z,39.52
2023-02-20T14:12:55.691Z,40.06
2023-02-20T14:15:30.994Z,39.43
2023-02-20T14:18:04.068Z,40.02
2023-02-20T14:20:37.454Z,39.76
2023-02-20T14:23:21.617Z,40.43
2023-02-20T14:26:00.853Z,40.14
2023-02-20T14:28:35.961Z,40.70
2023-02-20T14:31:21.283Z,40.17
2023-02-20T14:33:57.124Z,41.05
2023-02-20T14:36:45.761Z,41.42
2023-02-20T14:39:27.028Z,41.08
2023-02-20T14:42:02.350Z,41.47
2023-02-20T14:44:34.947Z,39.67
2023-02-20T14:47:11.788Z,39.65
2023-02-20T14:49:44.715Z,39.23
2023-02-20T14:52:20.681Z,39.85
2023-02-20T14:54:58.832Z,40.51
2023-02-20T14:57:32.386Z,40.13
2023-02-20T15:00:10.531Z,40.35
2023-02-20T15:02:46.441Z,40.84
2023-02-20T15:05:25.915Z,40.36
2023-02-20T15:08:05.269Z,40.73
2023-02-20T15:10:40.135Z,40.43
2023-02-20T15:13:17.558Z,40.78
2023-02-20T15:15:52.800Z,41.45
2023-02-20T15:18:34.120Z,41.30
2023-02-20T15:21:07.164Z,41.37
2023-02-20T15:23:40.926Z,41.86
2023-02-20T15:26:30.601Z,41.78
2023-02-20T15:29:13.563Z,42.47
2023-02-20T15:31:46.599Z,43.62
2023-02-20T15:34:22.694Z,43.88
2023-02-20T15:36:55.072Z,43.61
2023-02-20T15:39:27.814Z,44.11
2023-02-20T15:42:01.650Z,44.81
2023-02-20T15:44:35.954Z,45.38
2023-02-20T15:47:08.215Z,44.76
2023-02-20T15:49:40.633Z,44.80
2023-02-20T15:52:18.402Z,45.11
2023-02-20T15:54:54.134Z,45.49
2023-02-20T15:57:26.434Z,45.03
2023-02-20T15:59:59.868Z,45.12
2023-02-20T16:02:32.684Z,45.31
2023-02-20T16:05:05.839Z,47.82
2023-02-20T16:07:38.161Z,47.94
2023-02-20T16:10:13.956Z,48.84
2023-02-20T16:12:47.673Z,48.78
2023-02-20T16:15:21.274Z,48.01
2023-02-20T16:17:54.322Z,49.94
2023-02-20T16:20:29.261Z,49.14
2023-02-20T16:23:01.984Z,49.45
2023-02-20T16:25:35.319Z,51.20
2023-02-20T16:28:10.203Z,50.80
2023-02-20T16:30:45.429Z,49.91
2023-02-20T16:33:20.188Z,49.65
2023-02-20T16:35:55.216Z,50.29
2023-02-20T16:38:27.991Z,50.38
2023-02-20T16:41:02.771Z,49.99
2023-02-20T16:43:35.374Z,49.81
2023-02-20T16:46:09.910Z,50.42
2023-02-20T16:48:47.870Z,50.10
2023-02-20T16:51:23.644Z,50.78
2023-02-20T16:53:55.959Z,51.93
2023-02-20T16:56:28.285Z,52.00
2023-02-20T16:59:02.260Z,52.50
2023-02-20T17:01:37.444Z,53.18
2023-02-20T17:04:13.719Z,53.21
2023-02-20T17:06:46.377Z,54.44
2023-02-20T17:09:18.695Z,53.95
2023-02-20T17:11:51.031Z,54.14
2023-02-20T17:14:23.310Z,54.18
2023-02-20T17:16:56.349Z,55.67
2023-02-20T17:19:28.753Z,55.42
2023-02-20T17:22:01.619Z,56.35
2023-02-20T17:24:34.278Z,56.07
2023-02-20T17:27:06.717Z,57.34
2023-02-20T17:29:39.506Z,60.89
2023-02-20T17:32:13.329Z,57.74
2023-02-20T17:34:45.701Z,58.09
2023-02-20T17:37:18.037Z,57.64
2023-02-20T17:39:50.368Z,56.74
2023-02-20T17:42:22.913Z,57.13
2023-02-20T17:44:55.281Z,57.24
2023-02-20T17:47:28.286Z,56.49
2023-02-20T17:50:00.946Z,56.97
2023-02-20T17:52:33.282Z,57.19
2023-02-20T17:55:07.438Z,57.63
2023-02-20T17:57:39.783Z,57.80
2023-02-20T18:00:13.475Z,58.09
2023-02-20T18:02:46.613Z,58.57
2023-02-20T18:05:18.973Z,58.43
2023-02-20T18:07:51.267Z,59.01
2023-02-20T18:10:23.584Z,59.07
2023-02-20T18:13:04.892Z,59.04
2023-02-20T18:15:39.875Z,59.51
2023-02-20T18:18:14.956Z,59.53
2023-02-20T18:20:47.402Z,59.96
2023-02-20T18:23:19.708Z,60.48
2023-02-20T18:25:52.772Z,60.54
2023-02-20T18:28:25.209Z,61.45
2023-02-20T18:30:57.483Z,61.30
2023-02-20T18:33:30.449Z,61.57
2023-02-20T18:36:08.202Z,62.14
2023-02-20T18:38:41.115Z,62.73
2023-02-20T18:41:13.438Z,63.07
2023-02-20T18:43:46.242Z,63.26
2023-02-20T18:46:25.658Z,62.11
2023-02-20T18:48:59.170Z,62.40
2023-02-20T18:51:33.714Z,62.83
2023-02-20T18:54:08.013Z,63.71
2023-02-20T18:56:40.314Z,63.44
2023-02-20T18:59:12.651Z,64.15
2023-02-20T19:01:45.447Z,64.07
2023-02-20T19:04:18.900Z,64.30
2023-02-20T19:06:52.651Z,64.14
2023-02-20T19:09:25.148Z,63.91
2023-02-20T19:11:57.463Z,64.32
2023-02-20T19:14:30.083Z,65.05
2023-02-20T19:17:03.007Z,64.99
2023-02-20T19:19:36.090Z,65.04
2023-02-20T19:22:08.544Z,65.26
2023-02-20T19:24:40.896Z,66.21
2023-02-20T19:27:13.426Z,65.72
2023-02-20T19:29:46.077Z,66.73
2023-02-20T19:32:19.030Z,67.51
2023-02-20T19:34:52.630Z,67.60
2023-02-20T19:37:25.088Z,68.01
2023-02-20T19:39:57.388Z,68.46
2023-02-20T19:42:29.664Z,67.57
2023-02-20T19:45:02.136Z,68.23
2023-02-20T19:47:34.648Z,68.49
2023-02-20T19:50:15.155Z,68.51
2023-02-20T19:52:47.486Z,68.93
2023-02-20T19:55:21.138Z,68.54
2023-02-20T19:57:53.504Z,69.33
2023-02-20T20:00:28.004Z,70.03
2023-02-20T20:03:00.363Z,69.80
2023-02-20T20:05:33.458Z,70.71
2023-02-20T20:08:06.845Z,71.14
2023-02-20T20:10:39.512Z,71.55
2023-02-20T20:13:11.855Z,71.38
2023-02-20T20:15:44.135Z,72.52
2023-02-20T20:18:16.474Z,71.14
2023-02-20T20:20:49.534Z,71.32
2023-02-20T20:23:21.868Z,70.83
2023-02-20T20:25:54.193Z,70.29
2023-02-20T20:28:26.525Z,70.97
2023-02-20T20:30:58.879Z,71.66
2023-02-20T20:33:31.304Z,71.65
2023-02-20T20:36:05.119Z,71.70
2023-02-20T20:38:37.404Z,72.02
2023-02-20T20:41:10.819Z,71.59
2023-02-20T20:43:43.554Z,71.78
2023-02-20T20:46:16.818Z,72.25
2023-02-20T20:48:49.158Z,72.30
2023-02-20T20:51:22.155Z,72.94
2023-02-20T20:53:54.461Z,73.10
2023-02-20T20:56:26.786Z,73.84
2023-02-20T20:58:59.077Z,74.13
2023-02-20T21:01:31.447Z,75.26
2023-02-20T21:04:03.855Z,75.06
2023-02-20T21:06:36.941Z,75.81
2023-02-20T21:09:09.308Z,74.54
2023-02-20T21:11:41.827Z,75.15
2023-02-20T21:14:14.273Z,75.31
2023-02-20T21:16:46.559Z,76.16
2023-02-20T21:19:23.185Z,76.60
2023-02-20T21:21:56.477Z,75.92
2023-02-20T21:24:28.798Z,76.18
2023-02-20T21:27:01.348Z,76.64
2023-02-20T21:29:34.285Z,76.01
2023-02-20T21:32:07.134Z,76.50
2023-02-20T21:34:39.654Z,76.32
2023-02-20T21:37:12.647Z,75.27
2023-02-20T21:39:45.032Z,75.82
2023-02-20T21:42:35.569Z,75.26
2023-02-20T21:45:08.454Z,75.16
2023-02-20T21:47:41.092Z,76.16
2023-02-20T21:50:14.860Z,76.00
2023-02-20T21:52:49.001Z,75.23
2023-02-20T21:55:21.705Z,75.06
2023-02-20T21:57:59.208Z,75.25
2023-02-20T22:00:31.061Z,76.03
2023-02-20T22:03:03.590Z,75.81
2023-02-20T22:05:35.510Z,76.23
2023-02-20T22:08:26.927Z,77.17
2023-02-20T22:11:18.516Z,76.67
2023-02-20T22:14:09.178Z,76.47
2023-02-20T22:16:59.763Z,76.83
2023-02-20T22:19:50.313Z,76.97
2023-02-20T22:22:42.313Z,78.00
2023-02-20T22:25:33.699Z,77.57
2023-02-20T22:28:24.284Z,78.02
2023-02-20T22:31:15.325Z,78.84
2023-02-20T22:34:06.554Z,78.76
2023-02-20T22:36:57.046Z,78.81
2023-02-20T22:39:47.656Z,77.78
2023-02-20T22:42:38.689Z,76.84
2023-02-20T22:45:29.755Z,76.14
2023-02-20T22:48:20.398Z,76.14
2023-02-20T22:51:11.023Z,75.90
2023-02-20T22:54:03.617Z,76.28
2023-02-20T22:56:54.123Z,75.67
2023-02-20T22:59:45.590Z,75.07
2023-02-20T23:02:36.202Z,74.85
2023-02-20T23:05:26.707Z,74.73
2023-02-20T23:08:17.305Z,74.92
2023-02-20T23:11:07.808Z,75.45
2023-02-20T23:13:58.321Z,75.88
2023-02-20T23:16:49.611Z,75.83
2023-02-20T23:19:40.083Z,76.62
2023-02-20T23:22:30.585Z,76.73
2023-02-20T23:25:21.130Z,76.52
2023-02-20T23:28:11.707Z,77.15
2023-02-20T23:31:02.161Z,78.12
2023-02-20T23:33:53.522Z,78.83
2023-02-20T23:36:44.058Z,78.93
2023-02-20T23:39:34.523Z,79.22
2023-02-20T23:42:25.106Z,79.02
2023-02-20T23:45:15.664Z,79.47
2023-02-20T23:48:07.708Z,79.75
2023-02-20T23:50:59.241Z,79.81
2023-02-20T23:53:52.380Z,80.42
2023-02-20T23:56:43.419Z,80.41
2023-02-20T23:59:33.960Z,81.21
